createdAt,value
2023-01-27T00:00:50.000Z,85.64
2023-01-27T00:01:49.000Z,85.67
2023-01-27T00:02:45.000Z,85.95
2023-01-27T00:03:45.000Z,85.93
2023-01-27T00:04:45.000Z,85.89
2023-01-27T00:05:46.000Z,85.92
2023-01-27T00:06:45.000Z,85.78
2023-01-27T00:07:46.000Z,85.76
2023-01-27T00:08:45.000Z,85.86
2023-01-27T00:09:45.000Z,86.07
2023-01-27T00:11:00.000Z,86.08
2023-01-27T00:11:51.000Z,85.95
2023-01-27T00:12:51.000Z,85.97
2023-01-27T00:13:46.000Z,86.14
2023-01-27T00:14:45.000Z,85.90
2023-01-27T00:15:45.000Z,86.03
2023-01-27T00:16:45.000Z,86.02
2023-01-27T00:17:45.000Z,85.95
2023-01-27T00:18:45.000Z,85.85
2023-01-27T00:19:45.000Z,85.71
2023-01-27T00:20:51.000Z,85.52
2023-01-27T00:21:51.000Z,85.75
2023-01-27T00:22:51.000Z,85.74
2023-01-27T00:23:51.000Z,85.89
2023-01-27T00:24:45.000Z,85.96
2023-01-27T00:25:48.000Z,86.31
2023-01-27T00:26:45.000Z,86.17
2023-01-27T00:27:45.000Z,86.10
2023-01-27T00:28:46.000Z,85.94
2023-01-27T00:29:45.000Z,85.94
2023-01-27T00:30:45.000Z,85.84
2023-01-27T00:31:51.000Z,85.85
2023-01-27T00:32:51.000Z,86.03
2023-01-27T00:33:47.000Z,86.05
2023-01-27T00:34:46.000Z,86.01
2023-01-27T00:35:45.000Z,85.94
2023-01-27T00:36:45.000Z,86.19
2023-01-27T00:37:46.000Z,86.08
2023-01-27T00:38:46.000Z,85.86
2023-01-27T00:39:45.000Z,85.98
2023-01-27T00:41:00.000Z,86.01
2023-01-27T00:41:46.000Z,85.81
2023-01-27T00:42:46.000Z,86.08
2023-01-27T00:43:47.000Z,86.09
2023-01-27T00:45:01.000Z,85.99
2023-01-27T00:45:49.000Z,85.91
2023-01-27T00:46:45.000Z,85.89
2023-01-27T00:47:46.000Z,85.94
2023-01-27T00:48:46.000Z,86.00
2023-01-27T00:49:45.000Z,85.92
2023-01-27T00:50:45.000Z,86.05
2023-01-27T00:51:46.000Z,86.06
2023-01-27T00:52:46.000Z,86.05
2023-01-27T00:53:46.000Z,85.99
2023-01-27T00:54:46.000Z,86.11
2023-01-27T00:55:46.000Z,86.01
2023-01-27T00:56:46.000Z,85.96
2023-01-27T00:57:46.000Z,85.95
2023-01-27T00:58:46.000Z,85.95
2023-01-27T00:59:45.000Z,85.84
2023-01-27T01:00:47.000Z,85.94
2023-01-27T01:01:45.000Z,85.94
2023-01-27T01:02:45.000Z,85.89
2023-01-27T01:03:45.000Z,85.73
2023-01-27T01:04:45.000Z,85.91
2023-01-27T01:05:46.000Z,85.95
2023-01-27T01:06:45.000Z,85.91
2023-01-27T01:07:45.000Z,85.96
2023-01-27T01:08:46.000Z,86.01
2023-01-27T01:09:45.000Z,85.75
2023-01-27T01:10:45.000Z,85.58
2023-01-27T01:11:46.000Z,85.62
2023-01-27T01:12:45.000Z,85.75
2023-01-27T01:13:46.000Z,85.87
2023-01-27T01:14:45.000Z,85.73
2023-01-27T01:15:45.000Z,85.64
2023-01-27T01:16:45.000Z,85.64
2023-01-27T01:17:45.000Z,86.10
2023-01-27T01:18:46.000Z,86.21
2023-01-27T01:19:46.000Z,85.95
2023-01-27T01:20:45.000Z,85.83
2023-01-27T01:21:45.000Z,85.70
2023-01-27T01:22:45.000Z,85.61
2023-01-27T01:23:45.000Z,85.64
2023-01-27T01:24:45.000Z,86.26
2023-01-27T01:25:51.000Z,86.11
2023-01-27T01:26:45.000Z,85.94
2023-01-27T01:27:45.000Z,85.86
2023-01-27T01:28:46.000Z,86.07
2023-01-27T01:29:45.000Z,86.11
2023-01-27T01:30:46.000Z,86.00
2023-01-27T01:31:49.000Z,85.89
2023-01-27T01:32:46.000Z,85.95
2023-01-27T01:33:47.000Z,85.81
2023-01-27T01:34:46.000Z,85.78
2023-01-27T01:35:46.000Z,85.79
2023-01-27T01:36:46.000Z,85.73
2023-01-27T01:37:47.000Z,85.73
2023-01-27T01:38:47.000Z,85.72
2023-01-27T01:39:46.000Z,85.67
2023-01-27T01:40:46.000Z,85.74
2023-01-27T01:41:46.000Z,85.66
2023-01-27T01:42:55.000Z,85.55
2023-01-27T01:43:47.000Z,85.62
2023-01-27T01:44:46.000Z,85.59
2023-01-27T01:45:53.000Z,85.58
2023-01-27T01:46:46.000Z,85.74
2023-01-27T01:47:46.000Z,85.88
2023-01-27T01:48:51.000Z,86.00
2023-01-27T01:49:46.000Z,86.14
2023-01-27T01:50:52.000Z,86.34
2023-01-27T01:51:51.000Z,86.57
2023-01-27T01:52:47.000Z,86.72
2023-01-27T01:53:55.000Z,86.49
2023-01-27T01:54:53.000Z,86.55
2023-01-27T01:55:47.000Z,86.54
2023-01-27T01:57:09.000Z,86.55
2023-01-27T01:57:48.000Z,86.49
2023-01-27T01:58:47.000Z,86.52
2023-01-27T01:59:52.000Z,86.32
2023-01-27T02:00:46.000Z,86.23
2023-01-27T02:01:46.000Z,86.31
2023-01-27T02:02:49.000Z,86.46
2023-01-27T02:03:51.000Z,86.33
2023-01-27T02:05:09.000Z,86.49
2023-01-27T02:05:46.000Z,86.50
2023-01-27T02:06:57.000Z,86.46
2023-01-27T02:07:56.000Z,86.24
2023-01-27T02:08:49.000Z,86.21
2023-01-27T02:09:46.000Z,86.48
2023-01-27T02:10:46.000Z,86.47
2023-01-27T02:11:46.000Z,86.61
2023-01-27T02:12:46.000Z,86.70
2023-01-27T02:13:46.000Z,86.57
2023-01-27T02:14:46.000Z,86.50
2023-01-27T02:15:46.000Z,86.62
2023-01-27T02:16:46.000Z,86.41
2023-01-27T02:17:47.000Z,86.56
2023-01-27T02:18:46.000Z,86.71
2023-01-27T02:19:57.000Z,86.76
2023-01-27T02:20:49.000Z,86.70
2023-01-27T02:21:49.000Z,86.89
2023-01-27T02:22:58.000Z,87.25
2023-01-27T02:23:58.000Z,87.35
2023-01-27T02:24:54.000Z,87.29
2023-01-27T02:26:07.000Z,87.16
2023-01-27T02:26:46.000Z,87.08
2023-01-27T02:27:46.000Z,87.24
2023-01-27T02:28:53.000Z,87.18
2023-01-27T02:29:46.000Z,87.25
2023-01-27T02:30:46.000Z,87.25
2023-01-27T02:31:46.000Z,87.25
2023-01-27T02:32:46.000Z,87.22
2023-01-27T02:33:46.000Z,87.27
2023-01-27T02:34:45.000Z,87.33
2023-01-27T02:36:06.000Z,87.19
2023-01-27T02:36:58.000Z,87.31
2023-01-27T02:37:47.000Z,87.38
2023-01-27T02:38:48.000Z,87.16
2023-01-27T02:39:49.000Z,87.13
2023-01-27T02:40:48.000Z,87.00
2023-01-27T02:41:52.000Z,87.08
2023-01-27T02:42:45.000Z,87.02
2023-01-27T02:43:47.000Z,87.00
2023-01-27T02:44:45.000Z,87.10
2023-01-27T02:45:45.000Z,87.02
2023-01-27T02:46:45.000Z,87.04
2023-01-27T02:47:45.000Z,87.00
2023-01-27T02:48:45.000Z,86.78
2023-01-27T02:49:45.000Z,86.78
2023-01-27T02:50:45.000Z,86.77
2023-01-27T02:51:45.000Z,86.85
2023-01-27T02:52:45.000Z,86.74
2023-01-27T02:53:45.000Z,86.93
2023-01-27T02:54:45.000Z,87.03
2023-01-27T02:55:45.000Z,87.06
2023-01-27T02:56:45.000Z,87.06
2023-01-27T02:57:45.000Z,86.94
2023-01-27T02:58:45.000Z,87.16
2023-01-27T02:59:45.000Z,87.23
2023-01-27T03:00:45.000Z,87.40
2023-01-27T03:01:45.000Z,87.42
2023-01-27T03:02:45.000Z,87.44
2023-01-27T03:03:45.000Z,87.36
2023-01-27T03:04:45.000Z,87.54
2023-01-27T03:05:46.000Z,87.49
2023-01-27T03:06:46.000Z,87.68
2023-01-27T03:07:46.000Z,87.62
2023-01-27T03:08:46.000Z,87.97
2023-01-27T03:09:46.000Z,88.06
2023-01-27T03:10:50.000Z,88.13
2023-01-27T03:11:51.000Z,88.01
2023-01-27T03:12:45.000Z,88.26
2023-01-27T03:13:46.000Z,87.90
2023-01-27T03:14:51.000Z,87.82
2023-01-27T03:15:51.000Z,87.96
2023-01-27T03:16:51.000Z,87.96
2023-01-27T03:17:51.000Z,88.05
2023-01-27T03:18:49.000Z,88.20
2023-01-27T03:19:51.000Z,88.22
2023-01-27T03:20:47.000Z,87.97
2023-01-27T03:21:49.000Z,88.40
2023-01-27T03:22:46.000Z,88.20
2023-01-27T03:23:47.000Z,88.19
2023-01-27T03:24:46.000Z,87.99
2023-01-27T03:25:46.000Z,87.80
2023-01-27T03:26:46.000Z,87.91
2023-01-27T03:27:46.000Z,88.06
2023-01-27T03:29:00.000Z,87.88
2023-01-27T03:29:51.000Z,87.84
2023-01-27T03:30:46.000Z,87.76
2023-01-27T03:31:46.000Z,87.84
2023-01-27T03:32:46.000Z,88.15
2023-01-27T03:33:46.000Z,88.28
2023-01-27T03:34:46.000Z,88.24
2023-01-27T03:35:48.000Z,88.05
2023-01-27T03:36:51.000Z,88.09
2023-01-27T03:37:51.000Z,88.22
2023-01-27T03:38:51.000Z,88.31
2023-01-27T03:39:51.000Z,88.34
2023-01-27T03:40:51.000Z,88.25
2023-01-27T03:41:51.000Z,88.63
2023-01-27T03:42:51.000Z,88.60
2023-01-27T03:43:51.000Z,89.03
2023-01-27T03:44:51.000Z,89.08
2023-01-27T03:45:51.000Z,89.25
2023-01-27T03:46:46.000Z,89.42
2023-01-27T03:47:46.000Z,89.18
2023-01-27T03:48:48.000Z,89.03
2023-01-27T03:49:45.000Z,88.80
2023-01-27T03:50:55.000Z,89.11
2023-01-27T03:51:46.000Z,88.83
2023-01-27T03:53:01.000Z,88.98
2023-01-27T03:53:46.000Z,89.29
2023-01-27T03:54:46.000Z,89.17
2023-01-27T03:55:46.000Z,89.16
2023-01-27T03:56:46.000Z,89.21
2023-01-27T03:57:45.000Z,89.13
2023-01-27T03:58:47.000Z,89.22
2023-01-27T03:59:45.000Z,89.23
2023-01-27T04:00:51.000Z,89.16
2023-01-27T04:01:46.000Z,89.41
2023-01-27T04:02:51.000Z,89.41
2023-01-27T04:03:51.000Z,89.36
2023-01-27T04:04:51.000Z,89.22
2023-01-27T04:05:50.000Z,89.01
2023-01-27T04:06:50.000Z,89.21
2023-01-27T04:07:45.000Z,89.35
2023-01-27T04:08:46.000Z,89.34
2023-01-27T04:09:45.000Z,89.14
2023-01-27T04:11:04.000Z,89.16
2023-01-27T04:11:52.000Z,89.04
2023-01-27T04:12:46.000Z,89.30
2023-01-27T04:13:45.000Z,89.05
2023-01-27T04:14:45.000Z,89.03
2023-01-27T04:15:45.000Z,88.91
2023-01-27T04:16:46.000Z,88.90
2023-01-27T04:17:45.000Z,89.07
2023-01-27T04:18:45.000Z,89.13
2023-01-27T04:19:46.000Z,89.63
2023-01-27T04:20:45.000Z,89.46
2023-01-27T04:21:46.000Z,89.34
2023-01-27T04:22:45.000Z,89.36
2023-01-27T04:23:45.000Z,89.36
2023-01-27T04:24:45.000Z,89.47
2023-01-27T04:25:46.000Z,89.50
2023-01-27T04:26:46.000Z,89.58
2023-01-27T04:27:45.000Z,89.61
2023-01-27T04:28:47.000Z,89.50
2023-01-27T04:29:46.000Z,89.35
2023-01-27T04:30:46.000Z,89.60
2023-01-27T04:31:45.000Z,89.35
2023-01-27T04:32:45.000Z,89.42
2023-01-27T04:33:45.000Z,89.37
2023-01-27T04:34:45.000Z,89.28
2023-01-27T04:35:45.000Z,89.53
2023-01-27T04:36:46.000Z,89.48
2023-01-27T04:37:45.000Z,89.44
2023-01-27T04:38:46.000Z,89.39
2023-01-27T04:39:46.000Z,89.21
2023-01-27T04:40:46.000Z,89.19
2023-01-27T04:41:47.000Z,89.05
2023-01-27T04:42:45.000Z,88.96
2023-01-27T04:43:45.000Z,88.80
2023-01-27T04:44:45.000Z,89.19
2023-01-27T04:45:46.000Z,89.23
2023-01-27T04:46:46.000Z,89.38
2023-01-27T04:47:45.000Z,89.49
2023-01-27T04:48:46.000Z,89.61
2023-01-27T04:49:46.000Z,89.88
2023-01-27T04:50:46.000Z,90.02
2023-01-27T04:51:45.000Z,90.31
2023-01-27T04:52:46.000Z,90.00
2023-01-27T04:53:46.000Z,89.80
2023-01-27T04:54:45.000Z,89.72
2023-01-27T04:55:47.000Z,89.88
2023-01-27T04:57:01.000Z,89.94
2023-01-27T04:57:45.000Z,89.92
2023-01-27T04:58:45.000Z,90.01
2023-01-27T04:59:45.000Z,89.91
2023-01-27T05:00:45.000Z,89.85
2023-01-27T05:01:45.000Z,89.92
2023-01-27T05:02:45.000Z,89.80
2023-01-27T05:03:46.000Z,89.88
2023-01-27T05:04:45.000Z,89.76
2023-01-27T05:05:45.000Z,89.57
2023-01-27T05:06:46.000Z,89.60
2023-01-27T05:07:46.000Z,89.53
2023-01-27T05:08:46.000Z,89.72
2023-01-27T05:09:45.000Z,89.81
2023-01-27T05:10:46.000Z,89.93
2023-01-27T05:11:45.000Z,89.97
2023-01-27T05:12:45.000Z,90.02
2023-01-27T05:13:46.000Z,90.16
2023-01-27T05:14:46.000Z,89.97
2023-01-27T05:15:46.000Z,89.96
2023-01-27T05:16:45.000Z,89.84
2023-01-27T05:17:45.000Z,89.76
2023-01-27T05:18:47.000Z,89.93
2023-01-27T05:19:45.000Z,89.97
2023-01-27T05:20:45.000Z,90.14
2023-01-27T05:21:45.000Z,90.08
2023-01-27T05:22:46.000Z,90.24
2023-01-27T05:23:46.000Z,90.37
2023-01-27T05:24:45.000Z,90.43
2023-01-27T05:25:45.000Z,90.44
2023-01-27T05:26:46.000Z,90.27
2023-01-27T05:27:45.000Z,90.32
2023-01-27T05:28:47.000Z,90.06
2023-01-27T05:29:45.000Z,90.17
2023-01-27T05:30:45.000Z,90.08
2023-01-27T05:31:45.000Z,89.91
2023-01-27T05:32:45.000Z,89.81
2023-01-27T05:33:48.000Z,90.03
2023-01-27T05:34:45.000Z,89.79
2023-01-27T05:35:45.000Z,89.88
2023-01-27T05:36:46.000Z,89.89
2023-01-27T05:37:45.000Z,89.82
2023-01-27T05:38:46.000Z,89.54
2023-01-27T05:39:45.000Z,89.72
2023-01-27T05:40:45.000Z,89.65
2023-01-27T05:41:45.000Z,90.94
2023-01-27T05:42:45.000Z,90.30
2023-01-27T05:43:50.000Z,89.86
2023-01-27T05:44:45.000Z,88.58
2023-01-27T05:45:45.000Z,88.15
2023-01-27T05:46:45.000Z,87.69
2023-01-27T05:47:49.000Z,88.62
2023-01-27T05:48:48.000Z,88.88
2023-01-27T05:49:45.000Z,89.16
2023-01-27T05:50:52.000Z,89.43
2023-01-27T05:51:45.000Z,89.36
2023-01-27T05:52:45.000Z,89.51
2023-01-27T05:53:46.000Z,89.73
2023-01-27T05:54:45.000Z,90.08
2023-01-27T05:55:57.000Z,90.10
2023-01-27T05:57:20.000Z,90.06
2023-01-27T05:57:45.000Z,90.07
2023-01-27T05:58:45.000Z,90.06
2023-01-27T05:59:45.000Z,89.86
2023-01-27T06:00:46.000Z,89.80
2023-01-27T06:01:45.000Z,89.70
2023-01-27T06:02:45.000Z,89.68
2023-01-27T06:03:47.000Z,89.73
2023-01-27T06:04:45.000Z,89.69
2023-01-27T06:05:54.000Z,89.52
2023-01-27T06:06:45.000Z,89.42
2023-01-27T06:07:45.000Z,89.37
2023-01-27T06:08:47.000Z,89.36
2023-01-27T06:09:46.000Z,89.50
2023-01-27T06:10:46.000Z,89.71
2023-01-27T06:11:46.000Z,89.69
2023-01-27T06:12:46.000Z,89.88
2023-01-27T06:13:46.000Z,89.77
2023-01-27T06:14:45.000Z,89.76
2023-01-27T06:15:46.000Z,89.75
2023-01-27T06:16:46.000Z,89.67
2023-01-27T06:17:46.000Z,89.39
2023-01-27T06:18:47.000Z,89.74
2023-01-27T06:19:45.000Z,90.19
2023-01-27T06:20:46.000Z,89.92
2023-01-27T06:21:46.000Z,89.40
2023-01-27T06:22:46.000Z,89.35
2023-01-27T06:23:46.000Z,89.11
2023-01-27T06:24:46.000Z,89.03
2023-01-27T06:25:46.000Z,89.06
2023-01-27T06:26:45.000Z,89.01
2023-01-27T06:27:47.000Z,88.85
2023-01-27T06:28:46.000Z,89.04
2023-01-27T06:29:45.000Z,89.16
2023-01-27T06:30:46.000Z,89.13
2023-01-27T06:31:46.000Z,89.05
2023-01-27T06:32:45.000Z,88.98
2023-01-27T06:33:46.000Z,88.87
2023-01-27T06:34:46.000Z,88.82
2023-01-27T06:35:46.000Z,88.77
2023-01-27T06:36:46.000Z,88.79
2023-01-27T06:37:46.000Z,88.84
2023-01-27T06:38:47.000Z,88.63
2023-01-27T06:39:45.000Z,88.66
2023-01-27T06:40:45.000Z,88.65
2023-01-27T06:41:48.000Z,88.70
2023-01-27T06:42:45.000Z,88.60
2023-01-27T06:43:46.000Z,88.64
2023-01-27T06:44:45.000Z,88.60
2023-01-27T06:45:48.000Z,88.56
2023-01-27T06:46:45.000Z,88.50
2023-01-27T06:47:56.000Z,88.46
2023-01-27T06:48:46.000Z,88.12
2023-01-27T06:49:45.000Z,88.23
2023-01-27T06:50:45.000Z,88.15
2023-01-27T06:51:45.000Z,88.23
2023-01-27T06:52:46.000Z,88.09
2023-01-27T06:53:45.000Z,88.12
2023-01-27T06:54:45.000Z,87.95
2023-01-27T06:55:46.000Z,87.60
2023-01-27T06:56:45.000Z,87.88
2023-01-27T06:57:48.000Z,87.93
2023-01-27T06:58:45.000Z,87.88
2023-01-27T06:59:46.000Z,87.80
2023-01-27T07:00:46.000Z,87.79
2023-01-27T07:01:45.000Z,87.46
2023-01-27T07:02:45.000Z,87.27
2023-01-27T07:03:45.000Z,87.14
2023-01-27T07:04:45.000Z,87.08
2023-01-27T07:05:45.000Z,87.21
2023-01-27T07:06:45.000Z,86.97
2023-01-27T07:07:46.000Z,86.69
2023-01-27T07:08:46.000Z,86.40
2023-01-27T07:09:45.000Z,86.01
2023-01-27T07:10:45.000Z,85.88
2023-01-27T07:11:45.000Z,85.69
2023-01-27T07:12:45.000Z,86.02
2023-01-27T07:13:45.000Z,86.16
2023-01-27T07:14:45.000Z,86.18
2023-01-27T07:15:46.000Z,85.90
2023-01-27T07:16:47.000Z,86.09
2023-01-27T07:17:45.000Z,85.64
2023-01-27T07:18:45.000Z,85.63
2023-01-27T07:19:45.000Z,85.97
2023-01-27T07:20:46.000Z,85.90
2023-01-27T07:21:45.000Z,86.08
2023-01-27T07:22:45.000Z,86.07
2023-01-27T07:23:45.000Z,85.63
2023-01-27T07:24:45.000Z,85.48
2023-01-27T07:25:45.000Z,85.74
2023-01-27T07:26:46.000Z,85.73
2023-01-27T07:27:45.000Z,85.60
2023-01-27T07:28:45.000Z,85.64
2023-01-27T07:29:45.000Z,85.62
2023-01-27T07:30:45.000Z,85.68
2023-01-27T07:31:45.000Z,85.47
2023-01-27T07:32:45.000Z,85.52
2023-01-27T07:33:45.000Z,85.70
2023-01-27T07:34:46.000Z,85.67
2023-01-27T07:35:48.000Z,85.59
2023-01-27T07:36:45.000Z,85.43
2023-01-27T07:37:45.000Z,85.29
2023-01-27T07:38:49.000Z,85.30
2023-01-27T07:39:46.000Z,85.30
2023-01-27T07:40:45.000Z,85.32
2023-01-27T07:41:47.000Z,84.90
2023-01-27T07:42:45.000Z,84.53
2023-01-27T07:43:45.000Z,84.29
2023-01-27T07:44:45.000Z,83.88
2023-01-27T07:45:47.000Z,84.38
2023-01-27T07:46:45.000Z,84.60
2023-01-27T07:47:45.000Z,83.92
2023-01-27T07:48:45.000Z,83.92
2023-01-27T07:49:45.000Z,83.96
2023-01-27T07:50:45.000Z,83.77
2023-01-27T07:51:45.000Z,83.94
2023-01-27T07:52:45.000Z,83.96
2023-01-27T07:53:45.000Z,82.90
2023-01-27T07:54:45.000Z,83.36
2023-01-27T07:55:45.000Z,82.92
2023-01-27T07:56:45.000Z,83.03
2023-01-27T07:57:45.000Z,83.08
2023-01-27T07:58:45.000Z,82.81
2023-01-27T07:59:45.000Z,83.45
2023-01-27T08:00:45.000Z,83.02
2023-01-27T08:01:45.000Z,82.61
2023-01-27T08:02:50.000Z,82.54
2023-01-27T08:03:45.000Z,82.48
2023-01-27T08:04:47.000Z,82.01
2023-01-27T08:05:45.000Z,82.27
2023-01-27T08:06:45.000Z,82.66
2023-01-27T08:07:45.000Z,82.81
2023-01-27T08:08:45.000Z,82.48
2023-01-27T08:09:45.000Z,82.58
2023-01-27T08:10:48.000Z,81.39
2023-01-27T08:11:46.000Z,82.01
2023-01-27T08:12:46.000Z,81.95
2023-01-27T08:13:46.000Z,82.10
2023-01-27T08:14:45.000Z,82.19
2023-01-27T08:15:46.000Z,82.22
2023-01-27T08:16:46.000Z,81.95
2023-01-27T08:17:54.000Z,82.12
2023-01-27T08:18:46.000Z,82.32
2023-01-27T08:19:45.000Z,82.44
2023-01-27T08:20:46.000Z,81.92
2023-01-27T08:21:46.000Z,82.30
2023-01-27T08:22:46.000Z,81.71
2023-01-27T08:23:46.000Z,80.94
2023-01-27T08:24:47.000Z,81.18
2023-01-27T08:25:53.000Z,81.13
2023-01-27T08:26:45.000Z,81.50
2023-01-27T08:27:53.000Z,81.27
2023-01-27T08:28:46.000Z,81.89
2023-01-27T08:29:46.000Z,82.14
2023-01-27T08:30:46.000Z,81.31
2023-01-27T08:31:46.000Z,81.37
2023-01-27T08:32:49.000Z,81.64
2023-01-27T08:33:50.000Z,81.74
2023-01-27T08:34:46.000Z,81.37
2023-01-27T08:35:46.000Z,81.52
2023-01-27T08:36:46.000Z,81.00
2023-01-27T08:37:47.000Z,80.80
2023-01-27T08:38:49.000Z,81.11
2023-01-27T08:39:45.000Z,81.47
2023-01-27T08:40:46.000Z,80.69
2023-01-27T08:41:45.000Z,80.63
2023-01-27T08:42:48.000Z,81.07
2023-01-27T08:43:46.000Z,80.76
2023-01-27T08:44:45.000Z,81.37
2023-01-27T08:45:45.000Z,79.92
2023-01-27T08:46:45.000Z,80.40
2023-01-27T08:47:45.000Z,80.72
2023-01-27T08:48:46.000Z,81.01
2023-01-27T08:49:46.000Z,81.30
2023-01-27T08:50:45.000Z,81.30
2023-01-27T08:51:45.000Z,80.81
2023-01-27T08:52:45.000Z,80.85
2023-01-27T08:53:45.000Z,81.27
2023-01-27T08:54:45.000Z,80.80
2023-01-27T08:55:45.000Z,80.95
2023-01-27T08:56:45.000Z,81.38
2023-01-27T08:57:45.000Z,80.97
2023-01-27T08:58:46.000Z,80.76
2023-01-27T08:59:45.000Z,80.68
2023-01-27T09:00:45.000Z,80.63
2023-01-27T09:01:45.000Z,80.85
2023-01-27T09:02:45.000Z,80.77
2023-01-27T09:03:45.000Z,79.97
2023-01-27T09:04:45.000Z,80.82
2023-01-27T09:05:46.000Z,80.90
2023-01-27T09:06:46.000Z,80.80
2023-01-27T09:07:45.000Z,80.08
2023-01-27T09:09:00.000Z,80.63
2023-01-27T09:09:46.000Z,79.97
2023-01-27T09:10:45.000Z,79.91
2023-01-27T09:11:45.000Z,79.89
2023-01-27T09:12:45.000Z,79.37
2023-01-27T09:13:45.000Z,79.93
2023-01-27T09:14:45.000Z,79.86
2023-01-27T09:15:45.000Z,79.89
2023-01-27T09:16:45.000Z,79.23
2023-01-27T09:17:46.000Z,78.75
2023-01-27T09:18:45.000Z,79.20
2023-01-27T09:19:45.000Z,78.94
2023-01-27T09:20:45.000Z,79.13
2023-01-27T09:21:45.000Z,78.86
2023-01-27T09:22:45.000Z,79.39
2023-01-27T09:23:47.000Z,79.18
2023-01-27T09:24:45.000Z,79.25
2023-01-27T09:25:45.000Z,79.45
2023-01-27T09:26:45.000Z,79.18
2023-01-27T09:27:45.000Z,78.95
2023-01-27T09:28:45.000Z,78.90
2023-01-27T09:29:45.000Z,79.24
2023-01-27T09:30:45.000Z,79.43
2023-01-27T09:31:45.000Z,79.42
2023-01-27T09:32:45.000Z,78.59
2023-01-27T09:33:45.000Z,79.25
2023-01-27T09:34:45.000Z,79.19
2023-01-27T09:35:54.000Z,79.44
2023-01-27T09:36:51.000Z,78.54
2023-01-27T09:37:56.000Z,77.84
2023-01-27T09:38:56.000Z,78.08
2023-01-27T09:39:51.000Z,78.75
2023-01-27T09:41:04.000Z,78.67
2023-01-27T09:41:55.000Z,78.32
2023-01-27T09:43:09.000Z,78.28
2023-01-27T09:44:12.000Z,77.87
2023-01-27T09:45:06.000Z,77.92
2023-01-27T09:45:55.000Z,78.17
2023-01-27T09:47:05.000Z,78.29
2023-01-27T09:47:56.000Z,78.34
2023-01-27T09:49:13.000Z,78.54
2023-01-27T09:50:12.000Z,78.39
2023-01-27T09:50:59.000Z,77.81
2023-01-27T09:52:08.000Z,78.28
2023-01-27T09:53:06.000Z,78.52
2023-01-27T09:53:55.000Z,78.34
2023-01-27T09:54:55.000Z,77.64
2023-01-27T09:55:54.000Z,77.18
2023-01-27T09:57:05.000Z,77.30
2023-01-27T09:57:55.000Z,77.24
2023-01-27T09:59:08.000Z,77.00
2023-01-27T10:00:02.000Z,77.77
2023-01-27T10:01:19.000Z,77.30
2023-01-27T10:01:55.000Z,77.35
2023-01-27T10:03:05.000Z,77.27
2023-01-27T10:03:55.000Z,77.23
2023-01-27T10:05:00.000Z,77.17
2023-01-27T10:05:55.000Z,77.13
2023-01-27T10:07:08.000Z,77.23
2023-01-27T10:08:08.000Z,76.92
2023-01-27T10:08:55.000Z,76.78
2023-01-27T10:09:55.000Z,77.50
2023-01-27T10:11:08.000Z,77.67
2023-01-27T10:11:56.000Z,77.37
2023-01-27T10:13:06.000Z,77.41
2023-01-27T10:14:12.000Z,76.20
2023-01-27T10:15:09.000Z,75.86
2023-01-27T10:16:00.000Z,75.93
2023-01-27T10:17:05.000Z,76.04
2023-01-27T10:18:02.000Z,75.75
2023-01-27T10:19:09.000Z,76.42
2023-01-27T10:20:04.000Z,76.26
2023-01-27T10:21:00.000Z,76.74
2023-01-27T10:21:55.000Z,76.29
2023-01-27T10:23:05.000Z,76.13
2023-01-27T10:24:08.000Z,76.07
2023-01-27T10:24:56.000Z,75.96
2023-01-27T10:26:00.000Z,76.15
2023-01-27T10:26:53.000Z,76.09
2023-01-27T10:27:47.000Z,76.30
2023-01-27T10:28:50.000Z,76.09
2023-01-27T10:29:55.000Z,76.30
2023-01-27T10:31:08.000Z,76.02
2023-01-27T10:32:10.000Z,75.91
2023-01-27T10:32:59.000Z,76.03
2023-01-27T10:33:54.000Z,75.36
2023-01-27T10:34:57.000Z,75.70
2023-01-27T10:36:09.000Z,75.89
2023-01-27T10:36:56.000Z,75.37
2023-01-27T10:38:01.000Z,75.50
2023-01-27T10:39:04.000Z,75.38
2023-01-27T10:39:55.000Z,75.01
2023-01-27T10:41:01.000Z,74.88
2023-01-27T10:42:05.000Z,75.13
2023-01-27T10:42:53.000Z,75.29
2023-01-27T10:44:05.000Z,75.30
2023-01-27T10:45:05.000Z,75.76
2023-01-27T10:45:55.000Z,75.16
2023-01-27T10:46:59.000Z,75.16
2023-01-27T10:48:05.000Z,75.13
2023-01-27T10:48:52.000Z,75.74
2023-01-27T10:49:50.000Z,75.89
2023-01-27T10:50:52.000Z,76.19
2023-01-27T10:51:54.000Z,76.02
2023-01-27T10:52:56.000Z,75.78
2023-01-27T10:54:08.000Z,75.64
2023-01-27T10:54:55.000Z,75.47
2023-01-27T10:55:58.000Z,75.45
2023-01-27T10:56:56.000Z,76.36
2023-01-27T10:57:55.000Z,76.15
2023-01-27T10:59:01.000Z,76.61
2023-01-27T10:59:55.000Z,76.61
2023-01-27T11:00:49.000Z,76.29
2023-01-27T11:01:58.000Z,75.45
2023-01-27T11:03:08.000Z,74.88
2023-01-27T11:03:55.000Z,75.09
2023-01-27T11:04:50.000Z,74.88
2023-01-27T11:05:51.000Z,74.80
2023-01-27T11:06:46.000Z,75.13
2023-01-27T11:07:54.000Z,75.01
2023-01-27T11:08:49.000Z,74.96
2023-01-27T11:09:54.000Z,75.12
2023-01-27T11:10:54.000Z,74.86
2023-01-27T11:11:46.000Z,74.54
2023-01-27T11:12:53.000Z,75.06
2023-01-27T11:13:45.000Z,75.12
2023-01-27T11:14:49.000Z,74.98
2023-01-27T11:15:45.000Z,75.48
2023-01-27T11:16:49.000Z,74.35
2023-01-27T11:17:51.000Z,74.41
2023-01-27T11:18:55.000Z,74.62
2023-01-27T11:20:10.000Z,74.83
2023-01-27T11:20:53.000Z,74.83
2023-01-27T11:21:48.000Z,74.17
2023-01-27T11:22:53.000Z,74.51
2023-01-27T11:23:51.000Z,74.82
2023-01-27T11:24:58.000Z,74.29
2023-01-27T11:26:06.000Z,73.98
2023-01-27T11:26:54.000Z,74.05
2023-01-27T11:28:05.000Z,74.46
2023-01-27T11:28:55.000Z,74.75
2023-01-27T11:29:53.000Z,74.40
2023-01-27T11:31:01.000Z,74.87
2023-01-27T11:31:58.000Z,74.07
2023-01-27T11:32:59.000Z,74.06
2023-01-27T11:34:06.000Z,74.06
2023-01-27T11:35:00.000Z,74.76
2023-01-27T11:35:46.000Z,74.96
2023-01-27T11:36:45.000Z,73.98
2023-01-27T11:37:50.000Z,74.02
2023-01-27T11:38:45.000Z,73.99
2023-01-27T11:39:46.000Z,74.22
2023-01-27T11:40:48.000Z,73.86
2023-01-27T11:41:52.000Z,74.11
2023-01-27T11:42:45.000Z,73.92
2023-01-27T11:43:45.000Z,73.76
2023-01-27T11:44:48.000Z,73.80
2023-01-27T11:45:47.000Z,74.22
2023-01-27T11:46:47.000Z,74.02
2023-01-27T11:47:49.000Z,73.68
2023-01-27T11:48:50.000Z,74.13
2023-01-27T11:49:49.000Z,73.96
2023-01-27T11:50:45.000Z,74.24
2023-01-27T11:51:48.000Z,73.44
2023-01-27T11:52:49.000Z,73.69
2023-01-27T11:54:04.000Z,74.22
2023-01-27T11:54:53.000Z,74.44
2023-01-27T11:55:49.000Z,74.50
2023-01-27T11:56:48.000Z,74.62
2023-01-27T11:58:06.000Z,73.68
2023-01-27T11:59:08.000Z,73.70
2023-01-27T11:59:50.000Z,73.93
2023-01-27T12:00:51.000Z,74.29
2023-01-27T12:01:55.000Z,74.05
2023-01-27T12:03:08.000Z,73.95
2023-01-27T12:04:01.000Z,73.67
2023-01-27T12:05:00.000Z,74.24
2023-01-27T12:05:57.000Z,74.12
2023-01-27T12:06:54.000Z,74.72
2023-01-27T12:07:54.000Z,73.90
2023-01-27T12:08:46.000Z,73.51
2023-01-27T12:09:46.000Z,73.38
2023-01-27T12:10:45.000Z,74.06
2023-01-27T12:11:45.000Z,74.37
2023-01-27T12:12:45.000Z,73.25
2023-01-27T12:13:55.000Z,73.28
2023-01-27T12:14:50.000Z,73.55
2023-01-27T12:15:58.000Z,73.51
2023-01-27T12:16:50.000Z,73.55
2023-01-27T12:17:49.000Z,73.46
2023-01-27T12:18:52.000Z,73.72
2023-01-27T12:19:45.000Z,73.80
2023-01-27T12:20:48.000Z,73.93
2023-01-27T12:21:49.000Z,73.26
2023-01-27T12:22:52.000Z,73.03
2023-01-27T12:23:51.000Z,73.05
2023-01-27T12:24:48.000Z,73.42
2023-01-27T12:25:57.000Z,73.29
2023-01-27T12:26:45.000Z,73.37
2023-01-27T12:27:50.000Z,73.67
2023-01-27T12:28:50.000Z,73.76
2023-01-27T12:30:04.000Z,74.02
2023-01-27T12:30:45.000Z,72.93
2023-01-27T12:31:48.000Z,73.52
2023-01-27T12:32:46.000Z,73.12
2023-01-27T12:33:54.000Z,73.46
2023-01-27T12:34:48.000Z,73.17
2023-01-27T12:35:47.000Z,73.43
2023-01-27T12:36:46.000Z,73.53
2023-01-27T12:37:47.000Z,73.20
2023-01-27T12:38:50.000Z,73.30
2023-01-27T12:39:51.000Z,73.02
2023-01-27T12:40:46.000Z,73.29
2023-01-27T12:41:44.000Z,73.70
2023-01-27T12:42:47.000Z,73.60
2023-01-27T12:44:03.000Z,73.84
2023-01-27T12:44:45.000Z,73.52
2023-01-27T12:45:55.000Z,74.07
2023-01-27T12:46:56.000Z,72.85
2023-01-27T12:47:55.000Z,73.14
2023-01-27T12:48:50.000Z,73.37
2023-01-27T12:49:45.000Z,73.94
2023-01-27T12:51:04.000Z,74.06
2023-01-27T12:51:53.000Z,73.69
2023-01-27T12:52:51.000Z,73.73